»·PEaware :: N187KT KBFL-KLGB

N187KT :: KBFL-KLGB

FLIGHT INFORMATION

Flight Status: Arrived
Operator: Privately registered:
United States
More flights under this callsign
Pilot: Kristoffer L. (6767)
Aircraft: BEECH AIRCRAFT BARON
(BE58)
More flights by this aircraft type
Origin: KBFL Meadows
United States
Destination: KLGB Long Beach
United States
More flights between these airports :: More routes between these airports
Route: +MEADO3 LHS V459 SLI
File this flight plan on PilotEdge
Remarks:
Altitude:
(Current/Filed)
9,000ft
Speed:
(Current/Filed)
180kts
Departed: 10-Feb-19 11:34 AM
Arrived: 10-Feb-19 01:15 PM
Distance/Time
Traveled:
107nm/1:41
Distance/Time
To Go:
Arrived

Flight Plot

Page will automatically refresh every two minutes.

Flight plan parsing failed; only flown route is shown


Map Options




Map Legend


Flown Route
Filed Route
Departure Airport
Arrival Airport
Navaid (VOR, NDB)
Fix

Horizontal Profiles

Position Reports

Time Latitude Longitude Heading Altitude Ground
Speed
10-Feb-19 10:57 35.429375 -119.046096 226 499ft 0kts
10-Feb-19 10:58 35.429375 -119.046096 226 499ft 0kts
10-Feb-19 10:59 35.429375 -119.046096 226 499ft 0kts
10-Feb-19 11:00 35.429375 -119.046096 226 499ft 0kts
10-Feb-19 11:01 35.429375 -119.046096 226 499ft 0kts
10-Feb-19 11:02 35.429375 -119.046096 226 499ft 0kts
10-Feb-19 11:03 35.429375 -119.046096 226 499ft 0kts
10-Feb-19 11:04 35.429375 -119.046096 226 499ft 0kts
10-Feb-19 11:05 35.429375 -119.046096 226 499ft 0kts
10-Feb-19 11:06 35.429375 -119.046096 226 499ft 0kts
10-Feb-19 11:07 35.429375 -119.046096 226 499ft 0kts
10-Feb-19 11:08 35.429375 -119.046096 226 499ft 0kts
10-Feb-19 11:09 35.429375 -119.046096 226 499ft 0kts
10-Feb-19 11:10 35.429375 -119.046096 226 499ft 0kts
10-Feb-19 11:11 35.429375 -119.046096 226 499ft 0kts
10-Feb-19 11:12 35.429375 -119.046096 226 499ft 0kts
10-Feb-19 11:13 35.429375 -119.046096 226 499ft 0kts
10-Feb-19 11:14 35.429375 -119.046096 226 499ft 0kts
10-Feb-19 11:15 35.429375 -119.046096 226 499ft 0kts
10-Feb-19 11:16 35.429375 -119.046096 226 499ft 0kts
10-Feb-19 11:17 35.429375 -119.046096 226 499ft 0kts
10-Feb-19 11:18 35.429375 -119.046096 226 499ft 0kts
10-Feb-19 11:19 35.429375 -119.046096 226 499ft 0kts
10-Feb-19 11:20 35.429375 -119.046096 226 499ft 0kts
10-Feb-19 11:21 35.429375 -119.046096 226 499ft 0kts
10-Feb-19 11:22 35.429375 -119.046096 226 499ft 0kts
10-Feb-19 11:23 35.429375 -119.046096 226 499ft 0kts
10-Feb-19 11:24 35.429375 -119.046096 226 499ft 0kts
10-Feb-19 11:25 35.429207 -119.046304 225 499ft 0kts
10-Feb-19 11:26 35.429153 -119.046371 225 499ft 0kts
10-Feb-19 11:27 35.429154 -119.046371 225 499ft 0kts
10-Feb-19 11:28 35.428012 -119.046884 145 499ft 16kts
10-Feb-19 11:29 35.425727 -119.044736 230 499ft 0kts
10-Feb-19 11:30 35.425726 -119.044738 230 499ft 0kts
10-Feb-19 11:31 35.425725 -119.044738 231 499ft 0kts
10-Feb-19 11:32 35.425504 -119.045138 245 499ft 12kts
10-Feb-19 11:33 35.436930 -119.059828 315 683ft 125kts
10-Feb-19 11:34 35.462829 -119.092067 314 2066ft 136kts
10-Feb-19 11:35 35.489361 -119.126054 315 3033ft 144kts
10-Feb-19 11:36 35.521608 -119.158371 323 3229ft 156kts
10-Feb-19 11:37 35.550041 -119.195681 298 3616ft 146kts
10-Feb-19 11:38 35.524444 -119.217033 143 4190ft 169kts
10-Feb-19 11:39 35.489115 -119.182906 138 5138ft 158kts
10-Feb-19 11:40 35.452768 -119.152953 146 5869ft 150kts
10-Feb-19 11:41 35.417938 -119.123030 163 6544ft 150kts
10-Feb-19 11:42 35.379678 -119.104570 155 7342ft 145kts
10-Feb-19 11:43 35.349246 -119.085064 152 8021ft 148kts
10-Feb-19 11:44 35.313061 -119.058932 148 8795ft 148kts
10-Feb-19 11:45 35.274664 -119.029944 146 9007ft 179kts
10-Feb-19 11:46 35.231834 -118.997136 145 8994ft 186kts
10-Feb-19 11:47 35.187088 -118.962666 146 8972ft 192kts
10-Feb-19 11:48 35.141157 -118.927282 146 8913ft 194kts
10-Feb-19 11:49 35.095306 -118.891983 146 8913ft 193kts
10-Feb-19 11:50 35.066561 -118.869875 146 8913ft 193kts
10-Feb-19 11:51 35.066561 -118.869875 146 8913ft 193kts
10-Feb-19 11:52 35.066561 -118.869875 146 8913ft 193kts
10-Feb-19 11:53 35.066561 -118.869875 146 8913ft 193kts
10-Feb-19 11:54 35.066561 -118.869875 146 8913ft 193kts
10-Feb-19 11:55 35.066561 -118.869875 146 8913ft 193kts
10-Feb-19 12:07 35.429254 -119.046252 228 499ft 0kts
10-Feb-19 12:08 35.429254 -119.046252 228 499ft 0kts
10-Feb-19 12:09 35.429254 -119.046252 228 499ft 0kts
10-Feb-19 12:10 35.429254 -119.046252 228 499ft 0kts
10-Feb-19 12:11 35.429254 -119.046252 228 499ft 0kts
10-Feb-19 12:11 35.429254 -119.046252 228 499ft 0kts
10-Feb-19 12:13 35.429254 -119.046252 228 499ft 0kts
10-Feb-19 12:14 35.429254 -119.046252 228 499ft 0kts
10-Feb-19 12:15 35.429254 -119.046252 228 499ft 0kts
10-Feb-19 12:15 35.429254 -119.046252 228 499ft 0kts
10-Feb-19 12:16 35.429254 -119.046252 228 499ft 0kts
10-Feb-19 12:18 35.429254 -119.046252 228 499ft 0kts
10-Feb-19 12:19 35.429254 -119.046252 228 499ft 0kts
10-Feb-19 12:19 35.428516 -119.047103 215 499ft 8kts
10-Feb-19 12:20 35.425732 -119.044765 218 499ft 0kts
10-Feb-19 12:21 35.425732 -119.044765 218 499ft 0kts
10-Feb-19 12:22 35.425732 -119.044765 218 499ft 0kts
10-Feb-19 12:23 35.429274 -119.050652 318 510ft 88kts
10-Feb-19 12:24 35.452878 -119.080688 316 1582ft 127kts
10-Feb-19 12:25 35.475425 -119.115815 312 2878ft 130kts
10-Feb-19 12:26 35.465896 -119.159306 211 3920ft 171kts
10-Feb-19 12:27 35.420008 -119.146789 142 5150ft 168kts
10-Feb-19 12:28 35.381180 -119.114111 144 6476ft 161kts
10-Feb-19 12:29 35.343676 -119.084171 144 7794ft 153kts
10-Feb-19 12:30 35.305704 -119.054468 144 8836ft 160kts
10-Feb-19 12:31 35.261867 -119.020420 145 8986ft 196kts
10-Feb-19 12:32 35.214562 -118.983907 145 8984ft 195kts
10-Feb-19 12:33 35.167051 -118.947151 146 8906ft 198kts
10-Feb-19 12:34 35.131255 -118.919589 146 8903ft 196kts
10-Feb-19 12:35 35.084642 -118.883756 146 8904ft 195kts
10-Feb-19 12:36 35.037963 -118.847880 146 8905ft 195kts
10-Feb-19 12:37 34.991596 -118.812274 146 8889ft 196kts
10-Feb-19 12:38 34.945430 -118.776690 151 8879ft 192kts
10-Feb-19 12:39 34.900636 -118.742387 154 8875ft 184kts
10-Feb-19 12:40 34.858248 -118.710146 155 8875ft 175kts
10-Feb-19 12:41 34.816605 -118.678598 153 8853ft 175kts
10-Feb-19 12:42 34.775635 -118.647282 153 8893ft 176kts
10-Feb-19 12:43 34.734570 -118.616038 153 8903ft 169kts
10-Feb-19 12:44 34.695503 -118.586260 155 8881ft 161kts
10-Feb-19 12:45 34.657716 -118.559271 159 8876ft 156kts
10-Feb-19 12:46 34.618995 -118.534926 158 8875ft 155kts
10-Feb-19 12:47 34.580826 -118.510828 153 8917ft 155kts
10-Feb-19 12:48 34.542824 -118.486331 151 9027ft 156kts
10-Feb-19 12:49 34.514058 -118.467746 151 9036ft 159kts
10-Feb-19 12:50 34.473643 -118.441680 151 9036ft 161kts
10-Feb-19 12:51 34.433088 -118.415590 151 9035ft 161kts
10-Feb-19 12:52 34.392533 -118.389467 152 8984ft 161kts
10-Feb-19 12:53 34.351936 -118.363462 153 8982ft 161kts
10-Feb-19 12:54 34.311712 -118.337873 153 8981ft 161kts
10-Feb-19 12:55 34.271073 -118.312076 153 8981ft 162kts
10-Feb-19 12:56 34.229842 -118.287425 152 8982ft 161kts
10-Feb-19 12:57 34.189344 -118.261142 156 8996ft 160kts
10-Feb-19 12:58 34.149107 -118.233476 155 9004ft 167kts
10-Feb-19 12:59 34.105413 -118.205404 157 9016ft 180kts
10-Feb-19 13:00 34.055500 -118.184436 162 9013ft 189kts
10-Feb-19 13:01 34.003751 -118.164203 162 9010ft 190kts
10-Feb-19 13:02 33.953919 -118.144336 162 9037ft 181kts
10-Feb-19 13:03 33.906071 -118.122356 158 8764ft 181kts
10-Feb-19 13:04 33.857796 -118.097800 157 7921ft 185kts
10-Feb-19 13:05 33.822080 -118.056389 131 6381ft 186kts
10-Feb-19 13:06 33.789915 -118.006996 131 4417ft 178kts
10-Feb-19 13:07 33.760118 -117.961645 129 3131ft 168kts
10-Feb-19 13:08 33.725460 -117.959217 227 2950ft 129kts
10-Feb-19 13:09 33.713411 -118.004185 279 1762ft 144kts
10-Feb-19 13:10 33.726067 -118.042289 315 1509ft 136kts
10-Feb-19 13:11 33.757135 -118.074433 310 1296ft 145kts
10-Feb-19 13:12 33.783461 -118.108386 305 695ft 143kts
10-Feb-19 13:13 33.808323 -118.139739 308 95ft 118kts
10-Feb-19 13:14 33.818503 -118.153489 275 47ft 0kts
10-Feb-19 13:15 33.818503 -118.153489 275 47ft 0kts
10-Feb-19 13:16 33.818503 -118.153489 275 47ft 0kts

Navigation Log

Ident Type
Flight plan parsing failed, navigation log unavailable